Time;durP1;ratioP1;P1;durP2;ratioP2;P2;SDS_P1;SDS_P2;PMS_P1;PMS_P2;Temp;Humidity;BMP_temperature;BMP_pressure;BME280_temperature;BME280_humidity;BME280_pressure;Samples;Min_cycle;Max_cycle;Signal;HPM_P1;HPM_P2
2022/03/04 00:04:13;;;;;;;;;52.50;44.25;;;;;;;;6491557;39;8915;-57
2022/03/04 00:10:17;;;;;;;;;43.75;41.75;;;;;;;;6491663;46;8911;-57
2022/03/04 00:16:20;;;;;;;;;43.25;39.00;;;;;;;;6491641;46;8873;-58
2022/03/04 00:22:23;;;;;;;;;36.75;35.50;;;;;;;;6491827;39;9517;-56
2022/03/04 00:28:25;;;;;;;;;43.50;35.50;;;;;;;;6491545;39;8976;-56
2022/03/04 00:34:27;;;;;;;;;34.25;32.00;;;;;;;;6492326;39;8852;-57
2022/03/04 00:40:31;;;;;;;;;35.50;35.50;;;;;;;;6491468;31;8881;-56
2022/03/04 00:46:35;;;;;;;;;39.75;35.25;;;;;;;;6491077;39;8928;-57
2022/03/04 00:52:40;;;;;;;;;41.50;41.25;;;;;;;;6491731;39;9677;-57
2022/03/04 00:58:42;;;;;;;;;37.50;35.25;;;;;;;;6492640;39;9633;-57
2022/03/04 01:04:45;;;;;;;;;42.00;40.00;;;;;;;;6490799;39;8936;-57
2022/03/04 01:10:49;;;;;;;;;43.50;37.75;;;;;;;;6491313;39;8905;-58
2022/03/04 01:16:52;;;;;;;;;45.25;40.50;;;;;;;;6492408;31;8992;-56
2022/03/04 01:22:54;;;;;;;;;47.00;42.25;;;;;;;;6490190;39;8976;-57
2022/03/04 01:28:58;;;;;;;;;42.00;38.00;;;;;;;;6491509;39;8971;-55
2022/03/04 01:35:01;;;;;;;;;46.75;39.00;;;;;;;;6491264;39;8877;-57
2022/03/04 01:41:03;;;;;;;;;48.50;39.75;;;;;;;;6491602;39;8853;-58
2022/03/04 01:47:06;;;;;;;;;47.50;43.50;;;;;;;;6491646;39;8915;-57
2022/03/04 01:53:10;;;;;;;;;48.25;45.25;;;;;;;;6491468;39;8991;-57
2022/03/04 01:59:15;;;;;;;;;43.50;40.75;;;;;;;;6491187;39;8934;-56
2022/03/04 02:05:19;;;;;;;;;53.00;44.00;;;;;;;;6491093;39;9163;-57
2022/03/04 02:11:21;;;;;;;;;41.75;41.75;;;;;;;;6491024;39;8862;-57
2022/03/04 02:17:23;;;;;;;;;41.50;35.25;;;;;;;;6491392;39;8897;-56
2022/03/04 02:23:25;;;;;;;;;47.25;41.25;;;;;;;;6490764;39;9003;-58
2022/03/04 02:29:31;;;;;;;;;44.25;30.75;;;;;;;;6491536;39;8960;-57
2022/03/04 02:35:36;;;;;;;;;45.50;42.00;;;;;;;;6491052;39;8854;-58
2022/03/04 02:41:40;;;;;;;;;41.00;37.00;;;;;;;;6490763;39;8961;-54
2022/03/04 02:47:43;;;;;;;;;46.25;40.00;;;;;;;;6491012;39;8909;-57
2022/03/04 02:53:46;;;;;;;;;43.25;39.50;;;;;;;;6490006;39;8885;-56
2022/03/04 02:59:48;;;;;;;;;47.25;39.75;;;;;;;;6490667;39;9045;-57
2022/03/04 03:05:53;;;;;;;;;39.25;37.75;;;;;;;;6490431;31;9087;-58
2022/03/04 03:11:55;;;;;;;;;51.50;42.50;;;;;;;;6490999;39;9512;-58
2022/03/04 03:17:59;;;;;;;;;40.75;38.75;;;;;;;;6490418;46;8892;-57
2022/03/04 03:24:03;;;;;;;;;44.50;39.50;;;;;;;;6489602;47;8972;-56
2022/03/04 03:30:06;;;;;;;;;45.00;38.00;;;;;;;;6490775;39;8957;-56
2022/03/04 03:36:09;;;;;;;;;49.75;43.00;;;;;;;;6492274;39;9619;-57
2022/03/04 03:42:11;;;;;;;;;44.75;38.25;;;;;;;;6492489;31;8893;-57
2022/03/04 03:48:13;;;;;;;;;38.25;37.00;;;;;;;;6492489;31;8913;-57
2022/03/04 03:54:17;;;;;;;;;45.00;37.50;;;;;;;;6492127;39;8858;-56
2022/03/04 04:00:22;;;;;;;;;33.00;29.25;;;;;;;;6492570;31;9020;-57
2022/03/04 04:06:26;;;;;;;;;38.00;34.00;;;;;;;;6492082;39;9055;-58
2022/03/04 04:12:28;;;;;;;;;43.00;34.75;;;;;;;;6491792;46;8982;-56
2022/03/04 04:18:31;;;;;;;;;36.25;28.25;;;;;;;;6492005;46;8895;-57
2022/03/04 04:24:35;;;;;;;;;42.00;38.25;;;;;;;;6491622;31;8929;-58
2022/03/04 04:30:37;;;;;;;;;44.25;35.75;;;;;;;;6491882;39;9598;-56
2022/03/04 04:36:40;;;;;;;;;41.50;35.00;;;;;;;;6491250;39;9737;-58
2022/03/04 04:42:43;;;;;;;;;43.25;41.00;;;;;;;;6492114;31;8860;-57
2022/03/04 04:48:46;;;;;;;;;44.50;37.25;;;;;;;;6491309;39;9678;-57
2022/03/04 04:54:50;;;;;;;;;42.75;40.75;;;;;;;;6491178;46;8867;-58
2022/03/04 05:07:38;;;;;;;;;38.00;34.50;;;;;;;;6486881;39;9133;-57
2022/03/04 05:13:40;;;;;;;;;33.50;30.00;;;;;;;;6493039;46;8924;-58
2022/03/04 05:19:47;;;;;;;;;38.00;33.25;;;;;;;;6494279;39;8985;-57
2022/03/04 06:34:48;;;;;;;;;58.75;47.75;;;;;;;;6495091;39;9036;-57
2022/03/04 06:40:51;;;;;;;;;46.00;40.00;;;;;;;;6491117;46;8913;-58
2022/03/04 06:46:54;;;;;;;;;73.25;61.50;;;;;;;;6492895;39;8844;-57
2022/03/04 06:52:57;;;;;;;;;49.25;43.25;;;;;;;;6492421;39;9011;-57
2022/03/04 06:59:02;;;;;;;;;43.00;40.00;;;;;;;;6491338;31;9015;-58
2022/03/04 07:05:08;;;;;;;;;63.50;54.00;;;;;;;;6492219;39;8972;-57
2022/03/04 07:11:11;;;;;;;;;43.75;42.25;;;;;;;;6490673;39;8959;-56
2022/03/04 07:17:15;;;;;;;;;51.00;44.00;;;;;;;;6491131;46;8916;-57
2022/03/04 07:23:20;;;;;;;;;44.50;41.00;;;;;;;;6490023;47;8998;-57
2022/03/04 07:29:22;;;;;;;;;49.25;42.25;;;;;;;;6491793;39;9536;-56
2022/03/04 07:35:25;;;;;;;;;39.25;38.25;;;;;;;;6490902;31;8911;-57
2022/03/04 07:41:27;;;;;;;;;47.75;41.75;;;;;;;;6487915;31;8918;-57
2022/03/04 07:47:32;;;;;;;;;43.75;42.50;;;;;;;;6490617;47;9104;-57
2022/03/04 07:53:36;;;;;;;;;55.25;47.75;;;;;;;;6488991;39;9049;-57
2022/03/04 07:59:40;;;;;;;;;48.25;42.00;;;;;;;;6489359;39;9436;-57
2022/03/04 08:05:46;;;;;;;;;137.33;118.00;;;;;;;;6491129;31;9626;-57
2022/03/04 08:11:49;;;;;;;;;50.50;42.50;;;;;;;;6491165;39;9568;-58
2022/03/04 08:17:52;;;;;;;;;76.00;59.75;;;;;;;;6493632;31;8871;-55
2022/03/04 08:23:57;;;;;;;;;98.25;78.00;;;;;;;;6492402;39;8911;-59
2022/03/04 08:30:05;;;;;;;;;62.50;46.75;;;;;;;;6490658;46;9037;-56
2022/03/04 08:36:11;;;;;;;;;54.75;44.25;;;;;;;;6492050;39;8914;-57
2022/03/04 08:42:14;;;;;;;;;68.00;53.75;;;;;;;;6489115;31;9072;-58
2022/03/04 08:48:20;;;;;;;;;44.00;40.50;;;;;;;;6492065;46;8943;-57
2022/03/04 08:54:23;;;;;;;;;50.75;41.50;;;;;;;;6490565;39;9008;-57
2022/03/04 09:00:27;;;;;;;;;45.75;41.50;;;;;;;;6489316;46;9016;-57
2022/03/04 09:06:30;;;;;;;;;51.50;40.75;;;;;;;;6491904;46;8917;-57
2022/03/04 09:12:33;;;;;;;;;46.00;39.50;;;;;;;;6492322;46;9084;-57
2022/03/04 09:18:35;;;;;;;;;45.00;42.25;;;;;;;;6493834;31;8901;-57
2022/03/04 09:24:38;;;;;;;;;39.00;34.50;;;;;;;;6492838;46;8879;-57
2022/03/04 09:30:40;;;;;;;;;44.00;39.50;;;;;;;;6491910;31;9080;-58
2022/03/04 09:36:45;;;;;;;;;45.75;37.75;;;;;;;;6491282;46;8895;-56
2022/03/04 09:42:50;;;;;;;;;45.75;41.00;;;;;;;;6490073;46;8900;-57
2022/03/04 09:48:53;;;;;;;;;46.25;36.00;;;;;;;;6492174;31;9005;-56
2022/03/04 09:54:58;;;;;;;;;53.25;43.00;;;;;;;;6489101;46;8963;-57
2022/03/04 10:01:01;;;;;;;;;53.25;44.75;;;;;;;;6490470;31;9003;-58
2022/03/04 10:07:16;;;;;;;;;52.25;45.50;;;;;;;;6490504;31;8916;-59
2022/03/04 10:13:44;;;;;;;;;47.50;41.75;;;;;;;;6489952;31;8907;-57
2022/03/04 10:19:57;;;;;;;;;45.75;41.00;;;;;;;;6490487;39;8896;-56
2022/03/04 10:26:01;;;;;;;;;50.00;43.25;;;;;;;;6490783;39;8916;-58
2022/03/04 10:32:20;;;;;;;;;42.25;39.25;;;;;;;;6489005;39;8983;-57
2022/03/04 10:38:26;;;;;;;;;55.00;45.50;;;;;;;;6489892;31;8914;-57
2022/03/04 10:44:29;;;;;;;;;48.00;44.00;;;;;;;;6489097;39;8913;-58
2022/03/04 10:50:35;;;;;;;;;51.50;43.75;;;;;;;;6487976;39;9025;-59
2022/03/04 10:56:51;;;;;;;;;52.00;44.00;;;;;;;;6487792;31;8923;-59
2022/03/04 11:02:54;;;;;;;;;57.50;48.50;;;;;;;;6485108;39;8919;-58
2022/03/04 11:08:56;;;;;;;;;65.25;53.25;;;;;;;;6487066;46;8901;-60
2022/03/04 11:15:02;;;;;;;;;39.75;38.25;;;;;;;;6488181;31;8936;-58
2022/03/04 11:21:10;;;;;;;;;48.50;43.25;;;;;;;;6486555;46;8952;-56
2022/03/04 11:27:18;;;;;;;;;51.75;40.75;;;;;;;;6486668;46;8924;-57
2022/03/04 11:33:26;;;;;;;;;52.25;43.75;;;;;;;;6487389;39;8945;-57
2022/03/04 11:39:28;;;;;;;;;47.50;42.75;;;;;;;;6487385;31;8963;-58
2022/03/04 11:45:32;;;;;;;;;46.25;42.50;;;;;;;;6485646;39;8914;-58
2022/03/04 11:51:36;;;;;;;;;46.25;41.50;;;;;;;;6486648;31;8963;-56
2022/03/04 11:57:44;;;;;;;;;42.75;39.00;;;;;;;;6488529;39;8915;-58
2022/03/04 12:04:12;;;;;;;;;52.00;44.50;;;;;;;;6487430;39;9024;-58
2022/03/04 12:10:19;;;;;;;;;54.25;45.50;;;;;;;;6487115;46;8984;-57
2022/03/04 12:16:22;;;;;;;;;42.00;41.00;;;;;;;;6488317;39;8917;-57
2022/03/04 12:22:27;;;;;;;;;48.75;43.25;;;;;;;;6487330;39;8924;-57
2022/03/04 12:28:46;;;;;;;;;48.50;42.75;;;;;;;;6488869;39;9013;-59
2022/03/04 12:34:53;;;;;;;;;54.50;46.00;;;;;;;;6489443;39;8909;-57
2022/03/04 12:40:56;;;;;;;;;50.50;44.50;;;;;;;;6490193;39;8866;-56
2022/03/04 12:47:01;;;;;;;;;45.25;41.25;;;;;;;;6490142;31;8963;-57
2022/03/04 12:53:24;;;;;;;;;40.50;37.25;;;;;;;;6489283;39;9030;-58
2022/03/04 12:59:30;;;;;;;;;49.50;43.00;;;;;;;;6489001;39;8953;-58
2022/03/04 13:05:54;;;;;;;;;47.75;42.25;;;;;;;;6487044;31;8983;-58
2022/03/04 13:12:08;;;;;;;;;55.75;43.75;;;;;;;;6488317;31;8985;-58
2022/03/04 13:18:11;;;;;;;;;47.50;41.50;;;;;;;;6489178;31;8913;-59
2022/03/04 13:24:24;;;;;;;;;56.75;46.75;;;;;;;;6486480;46;8994;-56
2022/03/04 13:30:46;;;;;;;;;42.75;37.25;;;;;;;;6484716;46;8940;-58
2022/03/04 13:36:53;;;;;;;;;48.00;41.00;;;;;;;;6487634;31;8915;-60
2022/03/04 13:42:59;;;;;;;;;47.50;40.00;;;;;;;;6486279;39;9576;-59
2022/03/04 13:49:05;;;;;;;;;47.75;41.75;;;;;;;;6483885;39;9022;-58
2022/03/04 13:55:09;;;;;;;;;45.50;37.25;;;;;;;;6486793;46;9024;-56
2022/03/04 14:01:24;;;;;;;;;44.50;39.50;;;;;;;;6487540;31;9623;-58
2022/03/04 14:07:26;;;;;;;;;45.00;41.25;;;;;;;;6489479;31;8905;-56
2022/03/04 14:13:30;;;;;;;;;45.50;41.75;;;;;;;;6488122;31;8919;-58
2022/03/04 14:19:33;;;;;;;;;44.25;40.00;;;;;;;;6488796;31;8877;-57
2022/03/04 14:25:38;;;;;;;;;43.75;40.00;;;;;;;;6485334;31;9013;-58
2022/03/04 14:31:41;;;;;;;;;45.67;41.33;;;;;;;;6488246;39;9033;-57
2022/03/04 14:37:45;;;;;;;;;43.00;40.00;;;;;;;;6487453;39;8919;-56
2022/03/04 14:43:49;;;;;;;;;44.75;41.50;;;;;;;;6486113;39;8936;-59
2022/03/04 14:49:51;;;;;;;;;49.25;41.75;;;;;;;;6488228;39;9666;-58
2022/03/04 14:55:54;;;;;;;;;59.00;48.00;;;;;;;;6486693;39;9560;-58
2022/03/04 15:01:56;;;;;;;;;64.25;52.50;;;;;;;;6487613;39;8941;-59
2022/03/04 15:08:01;;;;;;;;;55.50;45.75;;;;;;;;6489484;31;8987;-56
2022/03/04 15:14:10;;;;;;;;;48.00;41.33;;;;;;;;6488041;39;8898;-57
2022/03/04 15:20:14;;;;;;;;;43.00;40.50;;;;;;;;6488846;39;8995;-57
2022/03/04 15:26:16;;;;;;;;;82.50;63.00;;;;;;;;6487121;47;8993;-59
2022/03/04 15:32:19;;;;;;;;;48.50;44.00;;;;;;;;6474857;31;8980;-58
2022/03/04 15:38:23;;;;;;;;;59.25;49.75;;;;;;;;6487141;39;9061;-56
2022/03/04 15:44:28;;;;;;;;;45.50;41.50;;;;;;;;6487055;31;9144;-57
2022/03/04 15:50:33;;;;;;;;;57.50;48.50;;;;;;;;6487337;46;9013;-57
2022/03/04 15:56:41;;;;;;;;;63.25;51.25;;;;;;;;6487146;39;8928;-57
2022/03/04 16:02:43;;;;;;;;;59.50;48.25;;;;;;;;6487854;47;9014;-56
2022/03/04 16:08:47;;;;;;;;;34.25;34.25;;;;;;;;6490049;39;8966;-57
2022/03/04 16:14:50;;;;;;;;;55.75;46.50;;;;;;;;6489899;47;9035;-57
2022/03/04 16:20:55;;;;;;;;;52.25;44.25;;;;;;;;6489510;47;8897;-56
2022/03/04 16:26:59;;;;;;;;;62.25;49.75;;;;;;;;6487933;39;8962;-57
2022/03/04 16:33:02;;;;;;;;;55.75;49.25;;;;;;;;6490033;47;8874;-57
2022/03/04 16:39:10;;;;;;;;;55.25;45.75;;;;;;;;6489746;39;8946;-58
2022/03/04 16:45:13;;;;;;;;;49.25;45.00;;;;;;;;6490179;39;8861;-56
2022/03/04 16:51:17;;;;;;;;;54.50;45.00;;;;;;;;6492114;31;9662;-58
2022/03/04 16:57:20;;;;;;;;;50.25;43.75;;;;;;;;6490082;46;8860;-58
2022/03/04 17:03:22;;;;;;;;;57.50;50.25;;;;;;;;6489456;46;9022;-55
2022/03/04 17:09:25;;;;;;;;;63.50;52.75;;;;;;;;6491191;39;8891;-55
2022/03/04 17:15:30;;;;;;;;;73.75;60.00;;;;;;;;6491315;39;8851;-56
2022/03/04 17:21:36;;;;;;;;;86.67;67.67;;;;;;;;6492833;39;8851;-56
2022/03/04 17:27:40;;;;;;;;;73.00;58.25;;;;;;;;6492588;31;8876;-58
2022/03/04 17:33:43;;;;;;;;;52.00;43.50;;;;;;;;6490352;39;8965;-57
2022/03/04 17:39:46;;;;;;;;;67.25;52.50;;;;;;;;6492398;31;8891;-58
2022/03/04 17:45:50;;;;;;;;;56.75;46.50;;;;;;;;6491613;39;8982;-58
2022/03/04 17:51:56;;;;;;;;;50.67;46.00;;;;;;;;6491474;39;9632;-59
2022/03/04 17:57:59;;;;;;;;;66.00;54.50;;;;;;;;6492037;39;8917;-58
2022/03/04 18:04:04;;;;;;;;;58.67;48.67;;;;;;;;6491376;31;9044;-56
2022/03/04 18:10:08;;;;;;;;;44.50;40.50;;;;;;;;6492381;31;8963;-58
2022/03/04 18:16:11;;;;;;;;;71.50;57.00;;;;;;;;6493521;31;9531;-57
2022/03/04 18:22:14;;;;;;;;;66.75;54.50;;;;;;;;6492148;39;8845;-58
2022/03/04 18:28:16;;;;;;;;;75.33;57.00;;;;;;;;6491549;46;8909;-59
2022/03/04 18:34:21;;;;;;;;;67.25;53.50;;;;;;;;6491293;39;8912;-57
2022/03/04 18:40:25;;;;;;;;;78.00;59.67;;;;;;;;6491873;46;8885;-57
2022/03/04 18:46:28;;;;;;;;;69.33;58.00;;;;;;;;6491503;46;8857;-57
2022/03/04 18:52:32;;;;;;;;;74.33;61.33;;;;;;;;6491947;39;9038;-57
2022/03/04 18:58:41;;;;;;;;;80.50;64.50;;;;;;;;6490632;39;8959;-58
2022/03/04 19:04:46;;;;;;;;;68.25;55.75;;;;;;;;6489333;39;8967;-59
2022/03/04 19:10:48;;;;;;;;;65.50;53.75;;;;;;;;6489693;39;8982;-57
2022/03/04 19:16:54;;;;;;;;;73.00;54.00;;;;;;;;6490416;46;8922;-58
2022/03/04 19:22:58;;;;;;;;;64.50;55.75;;;;;;;;6490965;31;8871;-59
2022/03/04 19:29:01;;;;;;;;;68.00;50.50;;;;;;;;6490435;39;8942;-57
2022/03/04 19:35:09;;;;;;;;;65.25;49.50;;;;;;;;6491177;31;9016;-58
2022/03/04 19:41:14;;;;;;;;;57.00;47.50;;;;;;;;6490709;39;8971;-56
2022/03/04 19:47:16;;;;;;;;;58.75;48.00;;;;;;;;6490629;39;8887;-58
